Airport Name : Garden City Rgnl

Other Name : Garden City Rgnl

ICAO : KGCK

IATA : GCK

FAA : GCK

Latitude : 37.927517

Longitude : -100.724414

Country : United States

Local Date and Time : 01 Dec 2021 10:28

 

TAF (Terminal Aerodrome Forecast)

KGCK 011135Z 0112/0212 30010KT P6SM SCT200

 

METAR (METeorological Aerodrome Report)

KGCK 011554Z 30009KT 10SM CLR 09/M03 A3015 RMK AO2 SLP210 T00941028

KGCK 011454Z 29008KT 10SM CLR 04/M03 A3012 RMK AO2 SLP204 T00441028 53017

KGCK 011354Z 29007KT 10SM CLR 02/M03 A3010 RMK AO2 SLP201 T00171033

KGCK 011254Z AUTO 31006KT 10SM CLR 03/M03 A3008 RMK AO2 SLP189 T00281028

To Charter a Jet Click here.